createdAt,value
2022-12-22T00:00:55.567Z,3.83
2022-12-22T00:03:40.930Z,3.17
2022-12-22T00:06:29.281Z,3.50
2022-12-22T00:09:14.764Z,3.15
2022-12-22T00:12:00.372Z,3.53
2022-12-22T00:14:45.908Z,3.17
2022-12-22T00:17:40.122Z,3.60
2022-12-22T00:20:32.172Z,7.60
2022-12-22T00:23:18.896Z,2.70
2022-12-22T00:26:04.783Z,3.58
2022-12-22T00:28:50.886Z,2.90
2022-12-22T00:31:37.913Z,4.10
2022-12-22T00:34:25.690Z,4.82
2022-12-22T00:37:14.674Z,3.65
2022-12-22T00:40:01.603Z,3.15
2022-12-22T00:42:47.046Z,3.60
2022-12-22T00:45:32.482Z,3.17
2022-12-22T00:48:18.436Z,3.10
2022-12-22T00:51:03.824Z,3.90
2022-12-22T00:53:49.328Z,4.30
2022-12-22T00:56:35.898Z,3.85
2022-12-22T00:59:21.143Z,4.05
2022-12-22T01:02:06.794Z,2.95
2022-12-22T01:04:51.962Z,4.72
2022-12-22T01:07:40.399Z,3.63
2022-12-22T01:10:31.506Z,4.25
2022-12-22T01:13:18.814Z,3.50
2022-12-22T01:16:04.190Z,2.92
2022-12-22T01:18:49.605Z,1.73
2022-12-22T01:21:36.662Z,2.90
2022-12-22T01:24:27.513Z,2.13
2022-12-22T01:27:12.798Z,4.15
2022-12-22T01:29:59.648Z,2.35
2022-12-22T01:32:45.073Z,5.63
2022-12-22T01:35:38.354Z,3.17
2022-12-22T01:38:23.886Z,2.80
2022-12-22T01:41:10.934Z,2.55
2022-12-22T01:43:56.415Z,2.97
2022-12-22T01:46:45.509Z,2.75
2022-12-22T01:49:33.992Z,2.88
2022-12-22T01:52:20.554Z,2.58
2022-12-22T01:55:06.729Z,2.60
2022-12-22T01:57:52.789Z,2.95
2022-12-22T02:00:38.583Z,2.45
2022-12-22T02:03:34.921Z,1.90
2022-12-22T02:06:32.990Z,3.17
2022-12-22T02:09:32.570Z,3.95
2022-12-22T02:12:27.257Z,3.03
2022-12-22T02:15:21.292Z,3.88
2022-12-22T02:18:15.421Z,2.53
2022-12-22T02:21:07.227Z,2.15
2022-12-22T02:24:10.020Z,3.23
2022-12-22T02:27:00.953Z,1.55
2022-12-22T02:29:49.972Z,3.85
2022-12-22T02:32:35.232Z,2.55
2022-12-22T02:35:21.145Z,2.10
2022-12-22T02:38:17.813Z,2.28
2022-12-22T02:41:10.209Z,2.72
2022-12-22T02:44:13.145Z,2.30
2022-12-22T02:49:57.775Z,1.80
2022-12-22T02:52:47.708Z,2.58
2022-12-22T02:55:34.875Z,2.47
2022-12-22T02:58:20.441Z,3.50
2022-12-22T03:01:07.559Z,3.20
2022-12-22T03:03:52.973Z,2.22
2022-12-22T03:06:38.460Z,1.48
2022-12-22T03:09:23.863Z,1.95
2022-12-22T03:12:09.391Z,1.85
2022-12-22T03:14:54.900Z,1.58
2022-12-22T03:17:41.684Z,2.50
2022-12-22T03:20:28.058Z,3.53
2022-12-22T03:23:13.639Z,2.47
2022-12-22T03:25:56.721Z,3.38
2022-12-22T03:28:26.366Z,1.67
2022-12-22T03:30:55.981Z,1.33
2022-12-22T03:33:25.406Z,1.55
2022-12-22T03:35:53.178Z,2.03
2022-12-22T03:38:21.076Z,2.13
2022-12-22T03:40:48.940Z,3.38
2022-12-22T03:43:35.350Z,1.60
2022-12-22T03:46:23.716Z,4.97
2022-12-22T03:49:06.887Z,3.28
2022-12-22T03:51:35.176Z,5.90
2022-12-22T03:54:03.043Z,4.90
2022-12-22T03:56:31.075Z,2.78
2022-12-22T03:58:58.984Z,4.85
2022-12-22T04:01:27.118Z,4.07
2022-12-22T04:03:56.437Z,2.45
2022-12-22T04:06:24.649Z,4.03
2022-12-22T04:08:52.549Z,5.85
2022-12-22T04:11:38.320Z,4.15
2022-12-22T04:14:06.155Z,3.28
2022-12-22T04:16:34.257Z,3.28
2022-12-22T04:19:03.461Z,3.17
2022-12-22T04:21:31.273Z,3.35
2022-12-22T04:23:59.063Z,4.20
2022-12-22T04:26:27.478Z,4.57
2022-12-22T04:28:55.799Z,2.78
2022-12-22T04:31:24.280Z,2.92
2022-12-22T04:33:52.273Z,3.63
2022-12-22T04:36:21.603Z,2.15
2022-12-22T04:38:49.386Z,1.67
2022-12-22T04:41:17.161Z,3.28
2022-12-22T04:43:44.933Z,2.22
2022-12-22T04:46:12.853Z,1.67
2022-12-22T04:48:40.716Z,3.58
2022-12-22T04:51:08.549Z,1.70
2022-12-22T04:53:37.748Z,1.73
2022-12-22T04:56:08.170Z,3.70
2022-12-22T04:58:37.279Z,1.73
2022-12-22T05:01:16.132Z,2.13
2022-12-22T05:03:44.664Z,1.60
2022-12-22T05:06:12.868Z,2.58
2022-12-22T05:08:42.016Z,3.03
2022-12-22T05:11:09.840Z,1.70
2022-12-22T05:13:37.706Z,2.58
2022-12-22T05:16:06.884Z,2.83
2022-12-22T05:18:35.434Z,1.40
2022-12-22T05:21:05.425Z,0.98
2022-12-22T05:23:33.266Z,2.22
2022-12-22T05:26:02.451Z,1.70
2022-12-22T05:28:32.060Z,1.73
2022-12-22T05:31:04.959Z,2.95
2022-12-22T05:33:32.786Z,1.45
2022-12-22T05:36:00.585Z,2.40
2022-12-22T05:38:28.657Z,2.55
2022-12-22T05:41:03.266Z,2.40
2022-12-22T05:43:33.616Z,1.50
2022-12-22T05:46:03.609Z,1.73
2022-12-22T05:48:37.372Z,1.75
2022-12-22T05:51:06.793Z,1.85
2022-12-22T05:53:34.659Z,1.40
2022-12-22T05:56:02.495Z,3.33
2022-12-22T05:58:30.353Z,1.23
2022-12-22T06:01:00.743Z,3.55
2022-12-22T06:03:29.686Z,2.72
2022-12-22T06:05:58.711Z,1.20
2022-12-22T06:08:27.245Z,2.08
2022-12-22T06:10:55.744Z,1.48
2022-12-22T06:13:23.553Z,1.67
2022-12-22T06:15:51.624Z,3.67
2022-12-22T06:18:20.868Z,2.95
2022-12-22T06:20:48.898Z,2.22
2022-12-22T06:23:16.711Z,1.98
2022-12-22T06:25:44.488Z,2.75
2022-12-22T06:28:12.284Z,3.17
2022-12-22T06:30:40.064Z,4.82
2022-12-22T06:33:07.837Z,2.13
2022-12-22T06:35:37.776Z,1.90
2022-12-22T06:38:05.624Z,3.92
2022-12-22T06:40:33.391Z,2.50
2022-12-22T06:43:10.132Z,2.60
2022-12-22T06:45:40.056Z,1.58
2022-12-22T06:48:09.353Z,1.35
2022-12-22T06:50:38.621Z,1.42
2022-12-22T06:53:06.810Z,3.33
2022-12-22T06:55:34.625Z,4.93
2022-12-22T06:58:02.551Z,1.90
2022-12-22T07:00:30.522Z,2.65
2022-12-22T07:02:58.517Z,1.73
2022-12-22T07:05:26.766Z,0.80
2022-12-22T07:07:55.889Z,5.82
2022-12-22T07:10:43.642Z,1.83
2022-12-22T07:13:20.315Z,1.63
2022-12-22T07:15:53.878Z,0.55
2022-12-22T07:18:27.233Z,3.10
2022-12-22T07:20:55.764Z,2.10
2022-12-22T07:23:24.940Z,1.13
2022-12-22T07:25:52.905Z,4.75
2022-12-22T07:28:21.505Z,3.03
2022-12-22T07:30:49.546Z,2.25
2022-12-22T07:33:17.792Z,4.22
2022-12-22T07:35:45.606Z,2.30
2022-12-22T07:38:13.663Z,8.65
2022-12-22T07:40:43.662Z,3.60
2022-12-22T07:43:12.637Z,3.65
2022-12-22T07:45:40.423Z,1.58
2022-12-22T07:48:28.342Z,1.77
2022-12-22T07:51:01.247Z,0.85
2022-12-22T07:53:29.039Z,1.23
2022-12-22T07:55:58.181Z,5.20
2022-12-22T07:58:25.945Z,1.90
2022-12-22T08:00:58.663Z,1.83
2022-12-22T08:03:26.519Z,2.53
2022-12-22T08:05:54.418Z,2.28
2022-12-22T08:08:22.209Z,1.90
2022-12-22T08:10:50.360Z,1.10
2022-12-22T08:13:20.425Z,1.65
2022-12-22T08:15:48.384Z,2.63
2022-12-22T08:18:16.277Z,2.20
2022-12-22T08:20:50.273Z,1.10
2022-12-22T08:23:18.159Z,1.67
2022-12-22T08:25:49.602Z,2.45
2022-12-22T08:28:19.078Z,1.93
2022-12-22T08:30:47.688Z,3.75
2022-12-22T08:33:15.739Z,2.97
2022-12-22T08:35:44.066Z,5.82
2022-12-22T08:38:12.792Z,1.92
2022-12-22T08:40:40.995Z,1.25
2022-12-22T08:43:10.977Z,2.22
2022-12-22T08:45:40.110Z,0.95
2022-12-22T08:48:07.890Z,2.25
2022-12-22T08:50:35.728Z,2.90
2022-12-22T08:53:04.337Z,1.50
2022-12-22T08:55:32.627Z,3.08
2022-12-22T08:58:00.891Z,1.83
2022-12-22T09:00:28.888Z,4.20
2022-12-22T09:02:58.130Z,1.15
2022-12-22T09:05:26.059Z,2.88
2022-12-22T09:07:53.872Z,2.55
2022-12-22T09:10:21.716Z,9.48
2022-12-22T09:12:51.212Z,2.65
2022-12-22T09:15:19.281Z,5.10
2022-12-22T09:17:48.189Z,2.53
2022-12-22T09:20:17.546Z,1.58
2022-12-22T09:22:45.319Z,5.93
2022-12-22T09:25:14.192Z,3.13
2022-12-22T09:27:41.953Z,4.10
2022-12-22T09:30:10.702Z,5.22
2022-12-22T09:32:38.504Z,3.15
2022-12-22T09:35:07.077Z,3.25
2022-12-22T09:37:36.208Z,2.05
2022-12-22T09:40:04.361Z,2.47
2022-12-22T09:42:35.713Z,3.63
2022-12-22T09:45:03.645Z,4.32
2022-12-22T09:47:37.380Z,3.15
2022-12-22T09:50:08.736Z,1.40
2022-12-22T09:52:47.246Z,1.58
2022-12-22T09:55:28.702Z,4.10
2022-12-22T09:57:56.965Z,4.03
2022-12-22T10:00:27.203Z,3.05
2022-12-22T10:03:01.402Z,2.10
2022-12-22T10:05:38.347Z,1.92
2022-12-22T10:08:13.608Z,4.25
2022-12-22T10:10:41.809Z,4.07
2022-12-22T10:13:19.543Z,6.78
2022-12-22T10:15:48.319Z,2.42
2022-12-22T10:18:18.506Z,3.10
2022-12-22T10:20:47.867Z,3.80
2022-12-22T10:23:19.286Z,3.38
2022-12-22T10:26:28.023Z,3.27
2022-12-22T10:28:52.285Z,2.17
2022-12-22T10:31:22.347Z,2.95
2022-12-22T10:33:52.112Z,2.03
2022-12-22T10:36:24.317Z,3.55
2022-12-22T10:39:02.952Z,3.88
2022-12-22T10:41:33.591Z,2.42
2022-12-22T10:44:05.317Z,1.35
2022-12-22T10:46:37.981Z,1.50
2022-12-22T10:49:18.993Z,2.20
2022-12-22T10:51:49.868Z,2.97
2022-12-22T10:54:31.123Z,2.45
2022-12-22T10:57:04.955Z,5.00
2022-12-22T10:59:33.994Z,4.97
2022-12-22T11:02:26.378Z,7.82
2022-12-22T11:04:56.053Z,2.47
2022-12-22T11:07:25.374Z,2.55
2022-12-22T11:09:54.658Z,5.35
2022-12-22T11:12:29.068Z,2.70
2022-12-22T11:15:03.594Z,5.15
2022-12-22T11:17:40.369Z,4.65
2022-12-22T11:20:31.294Z,2.80
2022-12-22T11:23:03.976Z,4.65
2022-12-22T11:25:43.356Z,2.55
2022-12-22T11:28:26.681Z,5.20
2022-12-22T11:31:09.098Z,2.75
2022-12-22T11:36:17.340Z,5.35
2022-12-22T11:38:50.969Z,3.88
2022-12-22T11:41:35.720Z,2.35
2022-12-22T11:44:24.666Z,4.63
2022-12-22T11:46:58.541Z,5.68
2022-12-22T11:49:48.516Z,5.00
2022-12-22T11:52:33.229Z,4.95
2022-12-22T11:55:18.173Z,1.90
2022-12-22T11:57:59.572Z,6.18
2022-12-22T12:00:56.245Z,4.10
2022-12-22T12:03:51.150Z,2.95
2022-12-22T12:06:45.242Z,4.72
2022-12-22T12:09:29.035Z,6.00
2022-12-22T12:12:03.634Z,3.65
2022-12-22T12:14:39.732Z,6.53
2022-12-22T12:17:18.479Z,5.28
2022-12-22T12:20:08.062Z,5.75
2022-12-22T12:22:46.100Z,13.35
2022-12-22T12:25:26.217Z,6.18
2022-12-22T12:28:07.621Z,5.07
2022-12-22T12:30:44.401Z,7.40
2022-12-22T12:33:17.342Z,6.80
2022-12-22T12:35:55.013Z,5.50
2022-12-22T12:39:06.270Z,6.03
2022-12-22T12:41:26.563Z,11.18
2022-12-22T12:43:55.946Z,7.90
2022-12-22T12:46:54.463Z,5.90
2022-12-22T12:50:00.748Z,7.32
2022-12-22T12:53:15.003Z,8.80
2022-12-22T12:56:10.167Z,4.80
2022-12-22T12:58:50.613Z,6.45
2022-12-22T13:01:55.766Z,7.28
2022-12-22T13:05:11.349Z,4.55
2022-12-22T13:08:15.649Z,5.50
2022-12-22T13:10:46.622Z,9.50
2022-12-22T13:13:46.622Z,7.07
2022-12-22T13:16:29.973Z,9.75
2022-12-22T13:19:00.059Z,7.50
2022-12-22T13:21:55.052Z,4.60
2022-12-22T13:24:31.374Z,3.10
2022-12-22T13:27:04.534Z,6.55
2022-12-22T13:29:42.876Z,7.45
2022-12-22T13:32:26.815Z,6.03
2022-12-22T13:37:53.795Z,4.65
2022-12-22T13:40:25.030Z,3.50
2022-12-22T13:42:55.116Z,7.25
2022-12-22T13:45:38.994Z,7.35
2022-12-22T13:48:10.703Z,8.13
2022-12-22T13:50:42.425Z,6.28
2022-12-22T13:53:34.336Z,4.80
2022-12-22T13:56:06.855Z,9.23
2022-12-22T13:58:39.964Z,5.45
2022-12-22T14:01:18.270Z,7.85
2022-12-22T14:04:01.509Z,4.53
2022-12-22T14:06:32.323Z,4.32
2022-12-22T14:09:14.524Z,5.60
2022-12-22T14:11:51.691Z,9.27
2022-12-22T14:14:24.500Z,9.20
2022-12-22T14:16:54.520Z,6.85
2022-12-22T14:19:23.604Z,4.55
2022-12-22T14:22:05.833Z,10.02
2022-12-22T14:24:41.863Z,8.95
2022-12-22T14:27:19.538Z,13.52
2022-12-22T14:29:47.488Z,9.77
2022-12-22T14:32:35.563Z,8.75
2022-12-22T14:35:03.439Z,4.60
2022-12-22T14:37:33.083Z,7.82
2022-12-22T14:40:01.178Z,6.53
2022-12-22T14:42:32.177Z,10.63
2022-12-22T14:45:00.148Z,7.07
2022-12-22T14:47:28.083Z,11.20
2022-12-22T14:49:59.405Z,8.50
2022-12-22T14:52:37.460Z,8.65
2022-12-22T14:55:21.745Z,8.20
2022-12-22T14:57:54.834Z,9.65
2022-12-22T15:00:33.050Z,11.93
2022-12-22T15:03:03.402Z,12.75
2022-12-22T15:05:35.221Z,13.30
2022-12-22T15:08:06.049Z,7.78
2022-12-22T15:10:43.774Z,11.75
2022-12-22T15:13:19.793Z,8.70
2022-12-22T15:15:47.600Z,8.52
2022-12-22T15:18:16.649Z,8.90
2022-12-22T15:20:44.499Z,12.70
2022-12-22T15:23:16.844Z,8.73
2022-12-22T15:25:45.245Z,6.72
2022-12-22T15:28:14.382Z,7.15
2022-12-22T15:30:42.899Z,10.07
2022-12-22T15:33:15.819Z,8.55
2022-12-22T15:35:44.518Z,11.70
2022-12-22T15:38:14.749Z,8.88
2022-12-22T15:40:42.668Z,6.50
2022-12-22T15:43:28.759Z,8.90
2022-12-22T15:45:58.631Z,9.90
2022-12-22T15:48:29.998Z,9.85
2022-12-22T15:50:58.601Z,9.73
2022-12-22T15:53:26.734Z,7.50
2022-12-22T15:55:58.336Z,7.35
2022-12-22T15:58:29.072Z,6.13
2022-12-22T16:00:58.232Z,6.75
2022-12-22T16:03:26.096Z,9.25
2022-12-22T16:05:54.532Z,8.48
2022-12-22T16:08:28.443Z,8.27
2022-12-22T16:10:56.184Z,10.18
2022-12-22T16:13:26.887Z,6.30
2022-12-22T16:15:55.236Z,5.35
2022-12-22T16:18:24.909Z,8.25
2022-12-22T16:20:53.299Z,10.85
2022-12-22T16:23:23.423Z,5.32
2022-12-22T16:25:58.752Z,3.97
2022-12-22T16:28:29.112Z,9.27
2022-12-22T16:30:56.977Z,5.53
2022-12-22T16:33:26.111Z,9.25
2022-12-22T16:35:54.109Z,8.05
2022-12-22T16:38:21.894Z,8.25
2022-12-22T16:40:52.567Z,4.68
2022-12-22T16:46:15.066Z,9.10
2022-12-22T16:48:47.399Z,5.45
2022-12-22T16:53:48.048Z,4.93
2022-12-22T16:56:19.129Z,4.53
2022-12-22T16:58:47.484Z,8.25
2022-12-22T17:01:25.511Z,8.07
2022-12-22T17:03:55.055Z,6.72
2022-12-22T17:06:22.961Z,4.45
2022-12-22T17:08:50.917Z,4.35
2022-12-22T17:11:22.825Z,2.92
2022-12-22T17:13:52.604Z,4.30
2022-12-22T17:16:21.985Z,8.05
2022-12-22T17:18:51.237Z,9.32
2022-12-22T17:21:21.743Z,6.55
2022-12-22T17:23:52.260Z,13.88
2022-12-22T17:26:23.791Z,10.77
2022-12-22T17:28:51.992Z,8.10
2022-12-22T17:31:22.165Z,5.78
2022-12-22T17:33:50.342Z,8.32
2022-12-22T17:36:32.073Z,8.27
2022-12-22T17:39:00.856Z,8.88
2022-12-22T17:41:28.946Z,6.28
2022-12-22T17:43:56.710Z,7.45
2022-12-22T17:46:24.796Z,5.32
2022-12-22T17:48:52.760Z,6.55
2022-12-22T17:51:25.923Z,5.53
2022-12-22T17:53:54.703Z,5.88
2022-12-22T17:56:24.999Z,5.80
2022-12-22T17:58:53.155Z,6.97
2022-12-22T18:01:23.578Z,9.25
2022-12-22T18:03:52.020Z,6.20
2022-12-22T18:06:21.839Z,5.43
2022-12-22T18:08:51.883Z,8.20
2022-12-22T18:11:20.099Z,10.25
2022-12-22T18:13:48.094Z,7.25
2022-12-22T18:16:18.054Z,8.55
2022-12-22T18:18:46.134Z,8.18
2022-12-22T18:21:18.721Z,7.00
2022-12-22T18:23:50.322Z,8.73
2022-12-22T18:26:24.287Z,7.18
2022-12-22T18:28:52.402Z,5.20
2022-12-22T18:31:21.620Z,9.68
2022-12-22T18:33:49.594Z,4.75
2022-12-22T18:36:24.622Z,7.00
2022-12-22T18:38:52.436Z,5.90
2022-12-22T18:41:24.306Z,5.63
2022-12-22T18:43:52.567Z,5.03
2022-12-22T18:46:21.373Z,6.95
2022-12-22T18:48:49.690Z,5.82
2022-12-22T18:51:20.344Z,5.18
2022-12-22T18:53:48.765Z,6.47
2022-12-22T18:56:16.490Z,9.13
2022-12-22T18:58:46.241Z,8.82
2022-12-22T19:01:20.034Z,6.78
2022-12-22T19:03:48.185Z,5.85
2022-12-22T19:06:20.435Z,6.47
2022-12-22T19:08:48.452Z,5.78
2022-12-22T19:11:18.272Z,5.35
2022-12-22T19:13:49.393Z,5.82
2022-12-22T19:16:19.857Z,5.80
2022-12-22T19:18:47.761Z,6.05
2022-12-22T19:21:16.372Z,6.88
2022-12-22T19:23:50.177Z,8.60
2022-12-22T19:26:22.652Z,4.88
2022-12-22T19:28:54.890Z,5.28
2022-12-22T19:31:25.145Z,6.32
2022-12-22T19:33:54.276Z,10.38
2022-12-22T19:36:26.207Z,6.18
2022-12-22T19:39:03.832Z,7.05
2022-12-22T19:41:39.372Z,6.15
2022-12-22T19:44:17.799Z,8.05
2022-12-22T19:46:45.959Z,9.40
2022-12-22T19:49:18.869Z,5.03
2022-12-22T19:51:46.910Z,8.23
2022-12-22T19:54:20.867Z,6.50
2022-12-22T19:56:51.660Z,6.88
2022-12-22T19:59:30.935Z,6.50
2022-12-22T20:02:02.071Z,6.35
2022-12-22T20:04:29.948Z,9.40
2022-12-22T20:06:57.747Z,5.93
2022-12-22T20:09:28.511Z,8.55
2022-12-22T20:11:56.460Z,6.45
2022-12-22T20:14:25.560Z,6.28
2022-12-22T20:16:53.381Z,5.03
2022-12-22T20:19:23.573Z,4.75
2022-12-22T20:21:51.358Z,4.88
2022-12-22T20:24:23.016Z,5.72
2022-12-22T20:26:54.966Z,5.30
2022-12-22T20:29:25.749Z,5.40
2022-12-22T20:31:53.944Z,10.57
2022-12-22T20:34:21.863Z,4.28
2022-12-22T20:36:49.649Z,5.82
2022-12-22T20:39:20.279Z,8.77
2022-12-22T20:41:52.906Z,3.63
2022-12-22T20:44:21.738Z,5.22
2022-12-22T20:46:53.119Z,6.07
2022-12-22T20:49:20.860Z,6.37
2022-12-22T20:51:48.707Z,5.43
2022-12-22T20:54:17.270Z,5.40
2022-12-22T20:56:45.786Z,7.43
2022-12-22T20:59:16.016Z,4.18
2022-12-22T21:01:43.937Z,3.92
2022-12-22T21:04:14.573Z,4.35
2022-12-22T21:06:47.824Z,5.97
2022-12-22T21:09:15.997Z,5.30
2022-12-22T21:11:44.164Z,2.92
2022-12-22T21:14:11.995Z,2.50
2022-12-22T21:16:40.683Z,7.88
2022-12-22T21:19:08.628Z,3.95
2022-12-22T21:21:37.759Z,6.65
2022-12-22T21:24:05.806Z,3.50
2022-12-22T21:26:36.970Z,4.70
2022-12-22T21:29:09.136Z,4.68
2022-12-22T21:31:36.932Z,6.45
2022-12-22T21:34:04.685Z,3.53
2022-12-22T21:36:34.833Z,4.18
2022-12-22T21:39:10.659Z,5.32
2022-12-22T21:41:56.150Z,7.53
2022-12-22T21:44:23.931Z,5.88
2022-12-22T21:46:52.051Z,4.60
2022-12-22T21:49:21.686Z,3.08
2022-12-22T21:51:50.571Z,4.97
2022-12-22T21:54:21.138Z,6.68
2022-12-22T21:56:49.905Z,6.95
2022-12-22T21:59:17.707Z,5.35
2022-12-22T22:01:46.536Z,4.45
2022-12-22T22:04:14.577Z,4.88
2022-12-22T22:06:42.407Z,5.97
2022-12-22T22:09:10.208Z,4.38
2022-12-22T22:11:59.770Z,4.15
2022-12-22T22:14:27.924Z,6.43
2022-12-22T22:16:55.805Z,4.43
2022-12-22T22:19:23.598Z,4.80
2022-12-22T22:21:51.406Z,5.45
2022-12-22T22:24:19.213Z,4.60
2022-12-22T22:26:50.391Z,5.45
2022-12-22T22:29:18.303Z,4.72
2022-12-22T22:31:46.223Z,5.30
2022-12-22T22:34:14.093Z,4.18
2022-12-22T22:36:41.915Z,5.70
2022-12-22T22:39:10.242Z,4.82
2022-12-22T22:41:43.286Z,4.15
2022-12-22T22:44:13.205Z,3.58
2022-12-22T22:46:41.643Z,3.75
2022-12-22T22:49:09.530Z,3.25
2022-12-22T22:51:37.343Z,3.70
2022-12-22T22:54:05.190Z,5.68
2022-12-22T22:56:32.998Z,2.78
2022-12-22T22:59:00.822Z,5.28
2022-12-22T23:01:30.053Z,2.50
2022-12-22T23:03:58.140Z,7.40
2022-12-22T23:06:26.228Z,3.65
2022-12-22T23:08:54.467Z,2.95
2022-12-22T23:11:22.459Z,6.53
2022-12-22T23:13:50.262Z,3.65
2022-12-22T23:16:21.339Z,2.60
2022-12-22T23:18:53.287Z,5.72
2022-12-22T23:21:22.277Z,4.68
2022-12-22T23:23:50.345Z,4.30
2022-12-22T23:26:18.341Z,2.83
2022-12-22T23:28:46.135Z,3.97
2022-12-22T23:31:15.022Z,3.10
2022-12-22T23:33:42.809Z,1.90
2022-12-22T23:36:11.987Z,2.63
2022-12-22T23:38:39.778Z,2.58
2022-12-22T23:41:09.562Z,2.15
2022-12-22T23:43:37.526Z,4.00
2022-12-22T23:46:07.966Z,4.40
2022-12-22T23:48:36.145Z,2.92
2022-12-22T23:51:04.486Z,1.48
2022-12-22T23:53:34.087Z,1.98
2022-12-22T23:56:01.868Z,5.10
2022-12-22T23:58:29.755Z,4.50
